Time;durP1;ratioP1;P1;durP2;ratioP2;P2;SDS_P1;SDS_P2;PMS_P1;PMS_P2;Temp;Humidity;BMP_temperature;BMP_pressure;BME280_temperature;BME280_humidity;BME280_pressure;Samples;Min_cycle;Max_cycle;Signal;HPM_P1;HPM_P2
2022/12/22 03:26:23;;;;;;;;;;;;;;;2.60;100.00;97526.06;5112777;28;19936;-60
2022/12/22 03:28:49;;;;;;;;;;;;;;;2.65;100.00;97505.91;5120045;28;19924;-59
2022/12/22 03:31:15;;;;;;;;;;;;;;;2.66;100.00;97504.84;5122927;28;19924;-60
2022/12/22 03:33:43;;;;;;;;;;;;;;;2.65;100.00;97508.53;5122671;28;19991;-60
2022/12/22 03:36:10;;;;;;;;;;;;;;;2.62;100.00;97503.72;5110913;28;20055;-61
2022/12/22 03:38:36;;;;;;;;;;;;;;;2.61;100.00;97509.19;5119185;28;19975;-60
2022/12/22 03:41:03;;;;;;;;;;;;;;;2.64;100.00;97512.19;5122088;28;20074;-60
2022/12/22 03:46:32;;;;;;;;;;;;;;;2.60;100.00;97497.06;5111300;28;19928;-59
2022/12/22 03:49:10;;;;;;;;;;;;;;;2.64;100.00;97506.91;5121035;28;19963;-59
2022/12/22 03:51:37;;;;;;;;;;;;;;;2.67;100.00;97487.22;5122620;28;19981;-59
2022/12/22 03:54:04;;;;;;;;;;;;;;;2.64;100.00;97490.28;5108284;28;19959;-59
2022/12/22 03:56:30;;;;;;;;;;;;;;;2.67;100.00;97487.22;5122666;28;19955;-59
2022/12/22 03:58:57;;;;;;;;;;;;;;;2.63;100.00;97478.16;5120828;28;19924;-59
2022/12/22 04:01:23;;;;;;;;;;;;;;;2.62;100.00;97481.81;5119124;28;19935;-60
2022/12/22 04:03:50;;;;;;;;;;;;;;;2.58;100.00;97485.91;5119711;28;20074;-60
2022/12/22 04:06:17;;;;;;;;;;;;;;;2.68;100.00;97487.00;5122352;28;19951;-59
2022/12/22 04:08:44;;;;;;;;;;;;;;;2.60;100.00;97483.88;5121510;28;19991;-60
2022/12/22 04:13:56;;;;;;;;;;;;;;;2.76;100.00;97479.78;5120230;28;19950;-60
2022/12/22 04:16:22;;;;;;;;;;;;;;;2.64;100.00;97485.81;5103926;28;19924;-60
2022/12/22 04:18:48;;;;;;;;;;;;;;;2.80;100.00;97484.41;5121451;28;19924;-59
2022/12/22 04:21:15;;;;;;;;;;;;;;;2.68;100.00;97465.09;5118686;28;19983;-60
2022/12/22 04:23:42;;;;;;;;;;;;;;;2.76;100.00;97475.31;5106366;28;19924;-60
2022/12/22 04:26:09;;;;;;;;;;;;;;;2.74;100.00;97474.75;5105120;28;20003;-61
2022/12/22 04:28:35;;;;;;;;;;;;;;;2.68;100.00;97450.09;5121815;28;20020;-60
2022/12/22 04:31:01;;;;;;;;;;;;;;;2.65;100.00;97478.72;5119485;28;19988;-59
2022/12/22 04:33:28;;;;;;;;;;;;;;;2.66;100.00;97456.63;5118456;28;19982;-59
2022/12/22 04:35:54;;;;;;;;;;;;;;;2.65;100.00;97484.81;5119467;28;19977;-59
2022/12/22 04:38:20;;;;;;;;;;;;;;;2.63;100.00;97449.16;5121660;28;19965;-59
2022/12/22 04:40:48;;;;;;;;;;;;;;;2.64;100.00;97453.38;5121136;28;19934;-59
2022/12/22 04:43:14;;;;;;;;;;;;;;;2.68;100.00;97459.81;5118136;28;20051;-59
2022/12/22 04:45:41;;;;;;;;;;;;;;;2.79;100.00;97447.69;5118004;28;19924;-60
2022/12/22 04:48:07;;;;;;;;;;;;;;;2.72;100.00;97442.53;5121194;28;19959;-60
2022/12/22 04:50:33;;;;;;;;;;;;;;;2.87;100.00;97448.22;5121340;28;19995;-59
2022/12/22 04:53:00;;;;;;;;;;;;;;;2.76;100.00;97438.41;5107176;28;19992;-59
2022/12/22 04:55:26;;;;;;;;;;;;;;;2.82;100.00;97447.25;5117823;28;19987;-59
2022/12/22 04:57:54;;;;;;;;;;;;;;;2.83;100.00;97431.22;5118689;28;19966;-59
2022/12/22 05:00:20;;;;;;;;;;;;;;;2.83;100.00;97425.94;5121146;28;19927;-59
2022/12/22 05:02:46;;;;;;;;;;;;;;;2.76;100.00;97417.31;5120905;28;19979;-59
2022/12/22 05:05:13;;;;;;;;;;;;;;;2.76;100.00;97441.03;5117416;28;20045;-58
2022/12/22 05:07:39;;;;;;;;;;;;;;;2.77;100.00;97411.03;5117727;28;19952;-59
2022/12/22 05:10:06;;;;;;;;;;;;;;;2.78;100.00;97427.66;5120521;28;20007;-59
2022/12/22 05:15:17;;;;;;;;;;;;;;;2.81;100.00;97428.00;5110093;28;19936;-59
2022/12/22 05:17:43;;;;;;;;;;;;;;;2.72;100.00;97410.91;5117798;28;20014;-60
2022/12/22 05:20:10;;;;;;;;;;;;;;;2.80;100.00;97434.31;5108969;28;20133;-59
2022/12/22 05:22:36;;;;;;;;;;;;;;;2.83;100.00;97431.22;5112295;28;20019;-60
2022/12/22 05:25:03;;;;;;;;;;;;;;;2.80;100.00;97405.31;5116646;28;19924;-60
2022/12/22 05:27:29;;;;;;;;;;;;;;;2.79;100.00;97430.06;5117572;28;19955;-60
2022/12/22 05:29:56;;;;;;;;;;;;;;;2.84;100.00;97406.47;5100826;28;20006;-60
2022/12/22 05:32:23;;;;;;;;;;;;;;;2.86;100.00;97422.84;5120933;28;19983;-59
2022/12/22 05:34:49;;;;;;;;;;;;;;;2.79;100.00;97422.13;5120036;28;20014;-60
2022/12/22 05:37:16;;;;;;;;;;;;;;;2.84;100.00;97406.47;5117453;28;19991;-60
2022/12/22 05:39:42;;;;;;;;;;;;;;;2.91;100.00;97401.88;5117806;28;19996;-60
2022/12/22 05:42:08;;;;;;;;;;;;;;;2.95;100.00;97404.88;5121218;28;19994;-60
2022/12/22 05:44:35;;;;;;;;;;;;;;;2.88;100.00;97402.31;5121244;28;20002;-60
2022/12/22 05:47:01;;;;;;;;;;;;;;;2.79;100.00;97405.50;5119006;28;19992;-59
2022/12/22 05:49:29;;;;;;;;;;;;;;;2.89;100.00;97413.69;5117539;28;19959;-60
2022/12/22 05:51:56;;;;;;;;;;;;;;;2.90;100.00;97400.28;5119118;28;19970;-59
2022/12/22 05:54:22;;;;;;;;;;;;;;;2.81;100.00;97401.66;5109366;28;19924;-59
2022/12/22 05:56:48;;;;;;;;;;;;;;;2.75;100.00;97394.63;5120142;28;19924;-60
2022/12/22 05:59:15;;;;;;;;;;;;;;;2.85;100.00;97389.59;5117507;28;19988;-59
2022/12/22 06:01:41;;;;;;;;;;;;;;;2.89;100.00;97388.13;5117529;28;19955;-60
2022/12/22 06:04:07;;;;;;;;;;;;;;;2.93;100.00;97396.38;5120856;28;20279;-59
2022/12/22 06:06:35;;;;;;;;;;;;;;;2.91;100.00;97388.69;5121171;28;19989;-60
2022/12/22 06:09:02;;;;;;;;;;;;;;;2.89;100.00;97396.03;5118654;28;19966;-59
2022/12/22 06:11:28;;;;;;;;;;;;;;;2.97;100.00;97374.59;5117590;28;19931;-60
2022/12/22 06:13:54;;;;;;;;;;;;;;;2.99;100.00;97391.00;5119200;28;20004;-60
2022/12/22 06:16:20;;;;;;;;;;;;;;;2.98;100.00;97385.94;5120935;28;19987;-60
2022/12/22 06:18:47;;;;;;;;;;;;;;;2.96;100.00;97393.28;5120824;28;19994;-60
2022/12/22 06:21:13;;;;;;;;;;;;;;;2.96;100.00;97388.03;5117585;28;19920;-60
2022/12/22 06:23:41;;;;;;;;;;;;;;;3.03;100.00;97391.38;5105299;28;20007;-60
2022/12/22 06:26:08;;;;;;;;;;;;;;;3.06;100.00;97388.28;5120434;28;19965;-61
2022/12/22 06:28:34;;;;;;;;;;;;;;;3.01;100.00;97373.13;5120697;28;19962;-61
2022/12/22 06:31:01;;;;;;;;;;;;;;;3.03;100.00;97389.50;5119646;28;19951;-59
2022/12/22 06:33:27;;;;;;;;;;;;;;;3.00;100.00;97370.72;5121117;28;19924;-61
2022/12/22 06:35:53;;;;;;;;;;;;;;;3.01;100.00;97375.75;5121959;28;19983;-60
2022/12/22 06:38:20;;;;;;;;;;;;;;;2.98;100.00;97365.66;5124412;28;19959;-59
2022/12/22 06:40:48;;;;;;;;;;;;;;;3.07;100.00;97374.84;5124092;28;19961;-60
2022/12/22 06:43:13;;;;;;;;;;;;;;;3.04;100.00;97377.94;5120785;28;19983;-60
2022/12/22 06:45:40;;;;;;;;;;;;;;;3.04;100.00;97366.56;5120579;28;19924;-60
2022/12/22 06:48:07;;;;;;;;;;;;;;;3.12;100.00;97382.88;5123681;28;19987;-60
2022/12/22 06:50:34;;;;;;;;;;;;;;;3.12;100.00;97382.09;5124036;28;19988;-60
2022/12/22 06:53:00;;;;;;;;;;;;;;;3.11;100.00;97385.75;5109724;28;19925;-59
2022/12/22 06:55:26;;;;;;;;;;;;;;;3.10;100.00;97384.13;5120531;28;19951;-61
2022/12/22 06:57:54;;;;;;;;;;;;;;;3.16;100.00;97384.00;5121702;28;19962;-60
2022/12/22 07:00:21;;;;;;;;;;;;;;;3.12;100.00;97377.63;5124049;28;19930;-60
2022/12/22 07:02:47;;;;;;;;;;;;;;;3.07;100.00;97389.84;5105323;28;19995;-59
2022/12/22 07:05:14;;;;;;;;;;;;;;;3.08;100.00;97380.91;5120689;28;19983;-60
2022/12/22 07:07:40;;;;;;;;;;;;;;;3.20;100.00;97385.19;5120349;28;20070;-59
2022/12/22 07:10:07;;;;;;;;;;;;;;;3.20;100.00;97387.81;5123360;28;19951;-59
2022/12/22 07:12:33;;;;;;;;;;;;;;;3.16;100.00;97386.66;5105310;28;20018;-59
2022/12/22 07:15:01;;;;;;;;;;;;;;;3.22;100.00;97383.09;5121602;28;19959;-60
2022/12/22 07:17:27;;;;;;;;;;;;;;;3.17;100.00;97390.91;5120114;28;19982;-60
2022/12/22 07:19:54;;;;;;;;;;;;;;;3.08;100.00;97400.19;5121493;28;19991;-60
2022/12/22 07:22:20;;;;;;;;;;;;;;;3.15;100.00;97382.44;5118443;28;19991;-60
2022/12/22 07:24:46;;;;;;;;;;;;;;;3.01;100.00;97398.69;5116987;28;19959;-59
2022/12/22 07:27:13;;;;;;;;;;;;;;;3.17;100.00;97392.75;5120253;28;19974;-59
2022/12/22 07:29:40;;;;;;;;;;;;;;;3.18;100.00;97381.16;5120055;28;19931;-60
2022/12/22 07:32:08;;;;;;;;;;;;;;;3.09;100.00;97388.63;5123202;28;20315;-60
2022/12/22 07:34:34;;;;;;;;;;;;;;;3.23;100.00;97384.72;5123565;28;19987;-59
2022/12/22 07:37:01;;;;;;;;;;;;;;;3.22;100.00;97377.03;5120949;28;19924;-60
2022/12/22 07:39:27;;;;;;;;;;;;;;;3.08;100.00;97381.72;5119836;28;19987;-59
2022/12/22 07:44:37;;;;;;;;;;;;;;;3.24;100.00;97367.88;5123207;28;19923;-60
2022/12/22 07:47:04;;;;;;;;;;;;;;;3.17;100.00;97374.28;5120410;28;19931;-60
2022/12/22 07:52:20;;;;;;;;;;;;;;;3.33;100.00;97344.56;5103854;28;19924;-60
2022/12/22 07:54:46;;;;;;;;;;;;;;;3.05;100.00;97355.81;5116005;28;20010;-60
2022/12/22 07:57:13;;;;;;;;;;;;;;;3.24;100.00;97348.59;5119267;28;19992;-60
2022/12/22 07:59:39;;;;;;;;;;;;;;;3.35;100.00;97349.59;5119247;28;19924;-60
2022/12/22 08:02:06;;;;;;;;;;;;;;;3.42;100.00;97355.56;5122269;28;20226;-60
2022/12/22 08:04:33;;;;;;;;;;;;;;;3.40;100.00;97347.09;5122741;28;19991;-59
2022/12/22 08:07:00;;;;;;;;;;;;;;;3.20;100.00;97357.97;5120662;28;19998;-59
2022/12/22 08:09:26;;;;;;;;;;;;;;;3.40;100.00;97350.53;5119501;28;19991;-59
2022/12/22 08:11:52;;;;;;;;;;;;;;;3.31;100.00;97359.03;5120403;28;19991;-60
2022/12/22 08:14:18;;;;;;;;;;;;;;;3.40;100.00;97353.19;5123228;28;19979;-60
2022/12/22 08:16:45;;;;;;;;;;;;;;;3.30;100.00;97355.59;5122404;28;20163;-60
2022/12/22 08:19:11;;;;;;;;;;;;;;;3.14;100.00;97345.72;5119227;28;20512;-60
2022/12/22 08:21:39;;;;;;;;;;;;;;;3.35;100.00;97334.56;5119176;28;19959;-60
2022/12/22 08:24:06;;;;;;;;;;;;;;;3.16;100.00;97351.56;5109790;28;19963;-61
2022/12/22 08:26:34;;;;;;;;;;;;;;;3.40;100.00;97350.53;5122417;28;20024;-60
2022/12/22 08:29:03;;;;;;;;;;;;;;;3.36;100.00;97348.56;5119989;28;19992;-61
2022/12/22 08:31:30;;;;;;;;;;;;;;;3.45;100.00;97350.63;5118678;28;19928;-59
2022/12/22 08:33:57;;;;;;;;;;;;;;;3.52;100.00;97348.69;5119929;28;19924;-60
2022/12/22 08:36:23;;;;;;;;;;;;;;;3.55;100.00;97348.22;5121983;28;20066;-59
2022/12/22 08:38:51;;;;;;;;;;;;;;;3.61;100.00;97339.38;5121295;28;19924;-60
2022/12/22 08:41:48;;;;;;;;;;;;;;;3.70;100.00;97351.19;5118558;28;19924;-60
2022/12/22 08:44:05;;;;;;;;;;;;;;;3.65;100.00;97331.78;5120964;28;20383;-60
2022/12/22 08:46:31;;;;;;;;;;;;;;;3.43;100.00;97336.88;5122024;28;19963;-59
2022/12/22 08:48:58;;;;;;;;;;;;;;;3.58;100.00;97345.13;5120113;28;19983;-59
2022/12/22 08:51:24;;;;;;;;;;;;;;;3.70;100.00;97339.81;5118483;28;20456;-60
2022/12/22 08:53:52;;;;;;;;;;;;;;;3.63;100.00;97337.28;5106755;28;19924;-59
2022/12/22 08:56:18;;;;;;;;;;;;;;;3.59;100.00;97333.50;5121633;28;19924;-59
2022/12/22 08:58:45;;;;;;;;;;;;;;;3.65;100.00;97339.72;5121360;28;19939;-59
2022/12/22 09:01:15;;;;;;;;;;;;;;;3.73;100.00;97321.66;5118524;28;19996;-60
2022/12/22 09:03:41;;;;;;;;;;;;;;;3.26;100.00;97336.75;5118306;28;20022;-60
2022/12/22 09:06:07;;;;;;;;;;;;;;;3.65;100.00;97339.72;5121231;28;19984;-60
2022/12/22 09:08:34;;;;;;;;;;;;;;;3.75;100.00;97334.63;5121664;28;19947;-60
2022/12/22 09:11:04;;;;;;;;;;;;;;;3.60;100.00;97336.94;5119362;28;20058;-61
2022/12/22 09:13:30;;;;;;;;;;;;;;;3.84;100.00;97332.44;5118144;28;20010;-60
2022/12/22 09:15:56;;;;;;;;;;;;;;;3.77;100.00;97345.78;5119637;28;19995;-60
2022/12/22 09:18:23;;;;;;;;;;;;;;;3.96;100.00;97327.91;5121660;28;19935;-60
2022/12/22 09:20:54;;;;;;;;;;;;;;;3.82;100.00;97330.03;5120579;28;20416;-60
2022/12/22 09:23:20;;;;;;;;;;;;;;;3.96;100.00;97323.41;5105654;28;19991;-60
2022/12/22 09:25:46;;;;;;;;;;;;;;;3.77;100.00;97336.00;5099447;28;19959;-59
2022/12/22 09:28:14;;;;;;;;;;;;;;;3.98;100.00;97329.28;5121293;28;19968;-60
2022/12/22 09:30:40;;;;;;;;;;;;;;;4.28;100.00;97335.13;5121136;28;19987;-60
2022/12/22 09:33:07;;;;;;;;;;;;;;;4.17;100.00;97351.03;5118398;28;19988;-60
2022/12/22 09:35:33;;;;;;;;;;;;;;;4.29;100.00;97334.09;5117907;28;19991;-59
2022/12/22 09:37:59;;;;;;;;;;;;;;;4.56;100.00;97330.84;5119765;28;20075;-60
2022/12/22 09:40:26;;;;;;;;;;;;;;;4.19;100.00;97322.53;5121302;28;19991;-61
2022/12/22 09:42:52;;;;;;;;;;;;;;;3.92;100.00;97329.41;5120521;28;19926;-60
2022/12/22 09:45:20;;;;;;;;;;;;;;;4.21;100.00;97318.63;5118206;28;19955;-60
2022/12/22 09:47:52;;;;;;;;;;;;;;;4.48;100.00;97333.91;5118159;28;19995;-60
2022/12/22 09:50:22;;;;;;;;;;;;;;;4.55;100.00;97306.25;5121296;28;19962;-60
2022/12/22 09:52:49;;;;;;;;;;;;;;;4.29;100.00;97305.03;5108659;28;19951;-60
2022/12/22 09:55:26;;;;;;;;;;;;;;;4.61;100.00;97296.59;5117797;28;20031;-60
2022/12/22 09:57:53;;;;;;;;;;;;;;;4.70;100.00;97311.00;5118848;28;19932;-60
2022/12/22 10:00:22;;;;;;;;;;;;;;;4.77;100.00;97301.06;5121032;28;19991;-60
2022/12/22 10:02:54;;;;;;;;;;;;;;;3.97;100.00;97303.09;5120566;28;19930;-59
2022/12/22 10:05:27;;;;;;;;;;;;;;;4.61;100.00;97296.59;5117861;28;19928;-60
2022/12/22 10:07:58;;;;;;;;;;;;;;;5.02;100.00;97296.16;5122624;28;19942;-60
2022/12/22 10:10:27;;;;;;;;;;;;;;;4.95;100.00;97297.38;5125158;28;19962;-60
2022/12/22 10:12:54;;;;;;;;;;;;;;;5.11;100.00;97292.06;5124182;28;20038;-60
2022/12/22 10:15:22;;;;;;;;;;;;;;;4.88;100.00;97293.06;5121713;28;19950;-60
2022/12/22 10:17:50;;;;;;;;;;;;;;;4.79;100.00;97293.69;5122032;28;19928;-59
2022/12/22 10:20:21;;;;;;;;;;;;;;;5.33;100.00;97294.75;5124968;28;19931;-59
2022/12/22 10:22:49;;;;;;;;;;;;;;;5.34;100.00;97293.72;5111953;28;19984;-59
2022/12/22 10:25:27;;;;;;;;;;;;;;;5.38;100.00;97290.31;5121366;28;19968;-60
2022/12/22 10:27:55;;;;;;;;;;;;;;;5.53;100.00;97284.44;5122514;28;20323;-60
2022/12/22 10:30:24;;;;;;;;;;;;;;;5.59;100.00;97287.94;5124642;28;19987;-59
2022/12/22 10:33:02;;;;;;;;;;;;;;;5.73;100.00;97284.66;5123888;28;20007;-59
2022/12/22 10:35:37;;;;;;;;;;;;;;;5.65;100.00;97289.59;5121016;28;19924;-59
2022/12/22 10:38:13;;;;;;;;;;;;;;;5.78;100.00;97292.69;5123430;28;19991;-60
2022/12/22 10:40:42;;;;;;;;;;;;;;;5.84;100.00;97294.34;5124509;28;20466;-59
2022/12/22 10:43:08;;;;;;;;;;;;;;;5.92;100.00;97293.13;5121192;28;19987;-61
2022/12/22 10:45:36;;;;;;;;;;;;;;;5.92;100.00;97287.81;5120622;28;19991;-63
2022/12/22 10:48:03;;;;;;;;;;;;;;;5.86;100.00;97283.53;5123415;28;19963;-60
2022/12/22 10:50:30;;;;;;;;;;;;;;;6.08;100.00;97286.16;5124331;28;20006;-60
2022/12/22 10:52:57;;;;;;;;;;;;;;;6.03;100.00;97268.34;5110624;28;19956;-60
2022/12/22 10:55:25;;;;;;;;;;;;;;;6.00;100.00;97270.69;5120663;28;19927;-60
2022/12/22 10:57:52;;;;;;;;;;;;;;;6.03;100.00;97276.31;5103231;28;20000;-59
2022/12/22 11:00:23;;;;;;;;;;;;;;;5.94;100.00;97275.16;5124102;28;19923;-60
2022/12/22 11:02:52;;;;;;;;;;;;;;;6.01;100.00;97267.78;5105197;28;19969;-61
2022/12/22 11:05:18;;;;;;;;;;;;;;;6.10;100.00;97262.81;5120683;28;19950;-60
2022/12/22 11:07:46;;;;;;;;;;;;;;;6.08;100.00;97263.09;5120866;28;19958;-60
2022/12/22 11:10:17;;;;;;;;;;;;;;;6.24;100.00;97259.56;5112838;28;19924;-59
2022/12/22 11:12:53;;;;;;;;;;;;;;;6.30;100.00;97255.91;5120740;28;19954;-59
2022/12/22 11:15:22;;;;;;;;;;;;;;;6.35;100.00;97255.94;5113684;28;19950;-60
2022/12/22 11:17:54;;;;;;;;;;;;;;;6.45;100.00;97260.53;5120743;28;19951;-60
2022/12/22 11:20:34;;;;;;;;;;;;;;;6.48;100.00;97252.88;5124110;28;19924;-60
2022/12/22 11:23:02;;;;;;;;;;;;;;;6.53;100.00;97243.38;5109361;28;19946;-60
2022/12/22 11:25:33;;;;;;;;;;;;;;;6.65;100.00;97244.00;5120313;28;19957;-59
2022/12/22 11:28:07;;;;;;;;;;;;;;;6.73;100.00;97244.31;5122105;28;19924;-59
2022/12/22 11:30:40;;;;;;;;;;;;;;;6.80;100.00;97234.28;5123763;28;19966;-60
2022/12/22 11:33:16;;;;;;;;;;;;;;;6.90;100.00;97233.56;5120576;28;19956;-61
2022/12/22 11:35:51;;;;;;;;;;;;;;;6.89;100.00;97231.94;5120052;28;19955;-60
2022/12/22 11:38:21;;;;;;;;;;;;;;;6.85;100.00;97228.19;5112836;28;19924;-60
2022/12/22 11:40:49;;;;;;;;;;;;;;;6.91;100.00;97229.81;5120323;28;19987;-60
2022/12/22 11:43:21;;;;;;;;;;;;;;;7.07;100.00;97236.84;5123553;28;19955;-60
2022/12/22 11:45:53;;;;;;;;;;;;;;;7.03;100.00;97230.44;5123100;28;20097;-60
2022/12/22 11:48:31;;;;;;;;;;;;;;;6.69;100.00;97216.69;5119753;28;19992;-60
2022/12/22 11:51:07;;;;;;;;;;;;;;;6.88;100.00;97217.06;5121444;28;19924;-60
2022/12/22 11:53:47;;;;;;;;;;;;;;;6.92;100.00;97218.16;5110248;28;19931;-60
2022/12/22 11:56:19;;;;;;;;;;;;;;;6.93;100.00;97219.78;5111805;28;19966;-60
2022/12/22 11:58:58;;;;;;;;;;;;;;;6.81;100.00;97216.47;5119715;28;19935;-61
2022/12/22 12:01:35;;;;;;;;;;;;;;;6.87;100.00;97226.88;5123185;28;19990;-62
2022/12/22 12:04:14;;;;;;;;;;;;;;;6.28;100.00;97222.72;5120452;28;19962;-60
2022/12/22 12:07:13;;;;;;;;;;;;;;;6.01;100.00;97233.31;5119538;28;19995;-61
2022/12/22 12:09:48;;;;;;;;;;;;;;;5.39;100.00;97228.38;5036972;28;19976;-60
2022/12/22 12:12:19;;;;;;;;;;;;;;;5.40;100.00;97235.28;5028714;28;19968;-60
2022/12/22 12:14:49;;;;;;;;;;;;;;;5.75;100.00;97234.09;5077445;28;19934;-59
2022/12/22 12:17:21;;;;;;;;;;;;;;;5.68;100.00;97225.53;5119265;28;19963;-61
2022/12/22 12:19:59;;;;;;;;;;;;;;;5.50;100.00;97221.38;5119426;28;19995;-59
2022/12/22 12:22:32;;;;;;;;;;;;;;;5.63;100.00;97220.97;5115914;28;19991;-60
2022/12/22 12:25:10;;;;;;;;;;;;;;;5.50;100.00;97213.41;5117181;28;19959;-60
2022/12/22 12:27:43;;;;;;;;;;;;;;;5.43;100.00;97213.59;5118902;28;20015;-61
2022/12/22 12:30:12;;;;;;;;;;;;;;;5.55;100.00;97202.88;5121862;28;19987;-61
2022/12/22 12:32:40;;;;;;;;;;;;;;;5.58;100.00;97209.53;5122465;28;19931;-60
2022/12/22 12:35:16;;;;;;;;;;;;;;;5.78;100.00;97202.63;5119414;28;19983;-60
2022/12/22 12:37:45;;;;;;;;;;;;;;;5.57;100.00;97194.69;5118846;28;19928;-59
2022/12/22 12:40:20;;;;;;;;;;;;;;;5.67;100.00;97200.88;5110581;28;19946;-60
2022/12/22 12:42:48;;;;;;;;;;;;;;;5.65;100.00;97196.91;5118807;28;19928;-59
2022/12/22 12:45:34;;;;;;;;;;;;;;;5.67;100.00;97200.88;5122072;28;19990;-60
2022/12/22 12:48:15;;;;;;;;;;;;;;;5.76;100.00;97198.59;5119912;28;19945;-60
2022/12/22 12:50:42;;;;;;;;;;;;;;;5.82;100.00;97187.78;5117672;28;19946;-60
2022/12/22 12:53:09;;;;;;;;;;;;;;;5.80;100.00;97203.16;5112366;28;19978;-60
2022/12/22 12:55:50;;;;;;;;;;;;;;;5.76;100.00;97188.00;5118311;28;19924;-60
2022/12/22 12:58:31;;;;;;;;;;;;;;;5.82;100.00;97197.59;5110570;28;19946;-60
2022/12/22 13:00:59;;;;;;;;;;;;;;;5.71;100.00;97203.84;5119631;28;19996;-59
2022/12/22 13:03:35;;;;;;;;;;;;;;;5.76;100.00;97188.78;5121679;28;19924;-59
2022/12/22 13:06:03;;;;;;;;;;;;;;;5.80;100.00;97194.41;5119228;28;19987;-60
2022/12/22 13:08:30;;;;;;;;;;;;;;;5.98;100.00;97202.84;5118102;28;19928;-60
2022/12/22 13:11:17;;;;;;;;;;;;;;;6.02;100.00;97197.03;5119493;28;19924;-60
2022/12/22 13:13:50;;;;;;;;;;;;;;;5.93;100.00;97204.63;5121581;28;19958;-61
2022/12/22 13:16:38;;;;;;;;;;;;;;;5.74;100.00;97203.34;5110558;28;19924;-59
2022/12/22 13:19:11;;;;;;;;;;;;;;;5.92;100.00;97203.84;5120508;28;19924;-60
2022/12/22 13:21:39;;;;;;;;;;;;;;;5.82;100.00;97202.88;5121741;28;19946;-60
2022/12/22 13:24:13;;;;;;;;;;;;;;;5.90;100.00;97210.44;5106604;28;19987;-59
2022/12/22 13:26:40;;;;;;;;;;;;;;;6.12;100.00;97205.09;5121530;28;19924;-60
2022/12/22 13:29:09;;;;;;;;;;;;;;;6.26;100.00;97204.41;5118529;28;19999;-60
2022/12/22 13:31:36;;;;;;;;;;;;;;;6.26;100.00;97209.72;5117920;28;19950;-60
2022/12/22 13:34:05;;;;;;;;;;;;;;;6.06;100.00;97212.19;5120438;28;19987;-60
2022/12/22 13:36:33;;;;;;;;;;;;;;;6.03;100.00;97209.25;5121595;28;19938;-59
2022/12/22 13:39:00;;;;;;;;;;;;;;;6.23;100.00;97218.16;5119486;28;19996;-60
2022/12/22 13:41:27;;;;;;;;;;;;;;;6.17;100.00;97216.53;5121996;28;19935;-60
2022/12/22 13:44:00;;;;;;;;;;;;;;;6.26;100.00;97217.66;5123045;28;19992;-60
2022/12/22 13:46:26;;;;;;;;;;;;;;;5.84;100.00;97212.22;5125600;28;20018;-60
2022/12/22 13:48:55;;;;;;;;;;;;;;;5.86;100.00;97226.03;5124483;28;19983;-60
2022/12/22 13:51:23;;;;;;;;;;;;;;;5.96;100.00;97214.75;5121748;28;19925;-59
2022/12/22 13:53:52;;;;;;;;;;;;;;;5.91;100.00;97227.94;5109833;28;20023;-59
2022/12/22 13:56:20;;;;;;;;;;;;;;;5.96;100.00;97220.84;5125479;28;19924;-59
2022/12/22 13:58:47;;;;;;;;;;;;;;;5.89;100.00;97224.72;5125109;28;19991;-60
2022/12/22 14:01:15;;;;;;;;;;;;;;;5.94;100.00;97222.16;5121628;28;19924;-59
2022/12/22 14:03:46;;;;;;;;;;;;;;;6.22;100.00;97226.38;5121533;28;19924;-60
2022/12/22 14:06:20;;;;;;;;;;;;;;;5.98;100.00;97218.72;5113380;28;19975;-60
2022/12/22 14:08:46;;;;;;;;;;;;;;;5.92;100.00;97221.56;5121547;28;19991;-59
2022/12/22 14:11:14;;;;;;;;;;;;;;;6.01;100.00;97216.63;5125191;28;20018;-60
2022/12/22 14:13:40;;;;;;;;;;;;;;;5.90;100.00;97211.25;5124939;28;19974;-59
2022/12/22 14:16:12;;;;;;;;;;;;;;;6.06;100.00;97229.94;5121868;28;19978;-60
2022/12/22 14:18:39;;;;;;;;;;;;;;;6.00;100.00;97221.16;5121384;28;20004;-60
2022/12/22 14:21:06;;;;;;;;;;;;;;;6.16;100.00;97225.53;5123919;28;20011;-60
2022/12/22 14:23:34;;;;;;;;;;;;;;;6.11;100.00;97222.03;5112000;28;19952;-60
2022/12/22 14:26:04;;;;;;;;;;;;;;;6.11;100.00;97228.13;5123352;28;20012;-60
2022/12/22 14:28:34;;;;;;;;;;;;;;;6.10;100.00;97226.53;5124580;28;19991;-60
2022/12/22 14:31:02;;;;;;;;;;;;;;;6.12;100.00;97224.44;5122518;28;19950;-60
2022/12/22 14:33:30;;;;;;;;;;;;;;;6.20;100.00;97231.94;5121014;28;19924;-61
2022/12/22 14:36:12;;;;;;;;;;;;;;;6.27;100.00;97235.19;5122233;28;19928;-60
2022/12/22 14:38:40;;;;;;;;;;;;;;;6.22;100.00;97232.47;5124273;28;19998;-60
2022/12/22 14:41:09;;;;;;;;;;;;;;;6.28;100.00;97236.75;5121489;28;19928;-59
2022/12/22 14:43:37;;;;;;;;;;;;;;;6.24;100.00;97248.94;5120995;28;19996;-60
2022/12/22 14:46:07;;;;;;;;;;;;;;;6.28;100.00;97251.91;5123370;28;20018;-60
2022/12/22 14:48:35;;;;;;;;;;;;;;;6.08;100.00;97244.53;5124386;28;19947;-61
2022/12/22 14:51:02;;;;;;;;;;;;;;;6.18;100.00;97244.66;5121861;28;19923;-60
2022/12/22 14:53:34;;;;;;;;;;;;;;;6.37;100.00;97259.16;5108418;28;20012;-60
2022/12/22 14:56:00;;;;;;;;;;;;;;;6.64;100.00;97259.09;5122828;28;20402;-60
2022/12/22 14:58:29;;;;;;;;;;;;;;;6.77;100.00;97261.34;5124128;28;19924;-60
2022/12/22 15:01:10;;;;;;;;;;;;;;;6.59;100.00;97264.38;5122707;28;19991;-60
2022/12/22 15:03:39;;;;;;;;;;;;;;;6.40;100.00;97271.91;5120488;28;19987;-60
2022/12/22 15:06:22;;;;;;;;;;;;;;;6.46;100.00;97273.53;5123197;28;19935;-60
2022/12/22 15:08:48;;;;;;;;;;;;;;;6.53;100.00;97276.78;5123595;28;19987;-60
2022/12/22 15:11:15;;;;;;;;;;;;;;;6.33;100.00;97276.59;5120364;28;19935;-61
2022/12/22 15:13:42;;;;;;;;;;;;;;;6.76;100.00;97274.84;5120253;28;19924;-60
2022/12/22 15:16:09;;;;;;;;;;;;;;;6.55;100.00;97270.44;5123471;28;19962;-60
2022/12/22 15:18:36;;;;;;;;;;;;;;;6.81;100.00;97277.53;5123906;28;20011;-60
2022/12/22 15:21:03;;;;;;;;;;;;;;;6.78;100.00;97276.19;5121209;28;19983;-61
2022/12/22 15:23:30;;;;;;;;;;;;;;;6.67;100.00;97290.44;5107643;28;19966;-60
2022/12/22 15:25:56;;;;;;;;;;;;;;;6.68;100.00;97291.22;5121251;28;19984;-60
2022/12/22 15:28:23;;;;;;;;;;;;;;;6.48;100.00;97286.53;5123332;28;20344;-59
2022/12/22 15:30:49;;;;;;;;;;;;;;;6.17;100.00;97288.09;5122887;28;19924;-60
2022/12/22 15:33:17;;;;;;;;;;;;;;;7.18;100.00;97283.63;5119953;28;19959;-60
2022/12/22 15:35:44;;;;;;;;;;;;;;;7.65;100.00;97285.47;5119881;28;20003;-60
2022/12/22 15:38:14;;;;;;;;;;;;;;;7.93;100.00;97285.06;5123050;28;20320;-59
2022/12/22 15:40:40;;;;;;;;;;;;;;;7.84;100.00;97281.28;5122952;28;19923;-61
2022/12/22 15:43:06;;;;;;;;;;;;;;;7.83;100.00;97285.03;5120327;28;19928;-60
2022/12/22 15:45:34;;;;;;;;;;;;;;;7.75;100.00;97291.63;5120032;28;19931;-60
2022/12/22 15:48:01;;;;;;;;;;;;;;;7.20;100.00;97296.66;5121796;28;19947;-61
2022/12/22 15:50:30;;;;;;;;;;;;;;;8.05;100.00;97293.59;5123159;28;19974;-59
2022/12/22 15:52:57;;;;;;;;;;;;;;;8.36;100.00;97289.97;5109080;28;19978;-60
2022/12/22 15:55:25;;;;;;;;;;;;;;;8.49;100.00;97288.66;5119533;28;19924;-60
2022/12/22 15:57:53;;;;;;;;;;;;;;;8.67;100.00;97301.47;5120238;28;19991;-60
2022/12/22 16:00:20;;;;;;;;;;;;;;;8.79;100.00;97301.22;5122907;28;19924;-60
2022/12/22 16:02:47;;;;;;;;;;;;;;;8.63;100.00;97314.50;5122340;28;19924;-60
2022/12/22 16:05:14;;;;;;;;;;;;;;;8.96;100.00;97307.88;5118808;28;19931;-60
2022/12/22 16:07:41;;;;;;;;;;;;;;;9.13;100.00;97315.56;5119251;28;19924;-59
2022/12/22 16:10:16;;;;;;;;;;;;;;;9.13;100.00;97318.22;5122374;28;20003;-59
2022/12/22 16:12:48;;;;;;;;;;;;;;;9.35;100.00;97321.41;5122787;28;19962;-60
2022/12/22 16:15:15;;;;;;;;;;;;;;;9.50;100.00;97321.38;5111383;28;19924;-60
2022/12/22 16:17:41;;;;;;;;;;;;;;;9.71;100.00;97325.63;5119250;28;19924;-61
2022/12/22 16:20:08;;;;;;;;;;;;;;;9.96;100.00;97322.06;5122366;28;19987;-60
2022/12/22 16:22:36;;;;;;;;;;;;;;;9.07;100.00;97324.63;5113494;28;19952;-60
2022/12/22 16:25:05;;;;;;;;;;;;;;;8.91;100.00;97333.72;5118073;28;19990;-60
2022/12/22 16:27:32;;;;;;;;;;;;;;;10.16;100.00;97324.66;5119416;28;19928;-60
2022/12/22 16:30:00;;;;;;;;;;;;;;;10.56;100.00;97331.66;5120719;28;19979;-60
2022/12/22 16:32:27;;;;;;;;;;;;;;;10.79;100.00;97330.97;5122828;28;19986;-59